ADDS METAR Data INFO
IDs: Format: Raw Decoded Include TAF

Data at: 1515 UTC 11 Dec 2017

KOCW 111505Z AUTO 23004KT 10SM CLR 05/M01 A3016 RMK AO2 T00521010
KOCW 111445Z AUTO 23006KT 10SM CLR 04/M01 A3017 RMK AO2 T00441010
KOCW 111425Z AUTO 24007KT 10SM CLR 04/M01 A3017 RMK AO2 T00401011
KOCW 111405Z AUTO 24005KT 10SM CLR 03/M01 A3017 RMK AO2 T00291015
KOCW 111345Z AUTO 23005KT 10SM CLR 02/M02 A3017 RMK AO2 T00211017
KOCW 111325Z AUTO 23005KT 10SM CLR 01/M02 A3017 RMK AO2 T00121020
KOCW 111305Z AUTO 23003KT 10SM CLR 01/M02 A3017 RMK AO2 T00061022
KOCW 111245Z AUTO 22003KT 10SM CLR 00/M02 A3017 RMK AO2 T00001025
KOCW 111225Z AUTO 22003KT 10SM CLR 00/M03 A3016 RMK AO2 T10031027
KOCW 111205Z AUTO 00000KT 10SM CLR 00/M03 A3016 RMK AO2 T10051030
KOCW 111145Z AUTO 23003KT 10SM CLR 00/M03 A3015 RMK AO2 T10021028
KOCW 111125Z AUTO 00000KT 10SM CLR 00/M03 A3015 RMK AO2 T00001028
KOCW 111105Z AUTO 22004KT 10SM CLR 00/M03 A3014 RMK AO2 T00011027
KOCW 111045Z AUTO 22005KT 10SM CLR 00/M03 A3014 RMK AO2 T00011026
KOCW 111025Z AUTO 22003KT 10SM CLR 00/M03 A3014 RMK AO2 T00031027
KOCW 111005Z AUTO 22006KT 10SM CLR 00/M03 A3014 RMK AO2 T00031027
KOCW 110945Z AUTO 23005KT 10SM CLR 00/M03 A3014 RMK AO2 T00001029
KOCW 110925Z AUTO 22005KT 10SM CLR 00/M03 A3013 RMK AO2 T00031027
KOCW 110905Z AUTO 22005KT 10SM CLR 00/M03 A3014 RMK AO2 T00041027
KOCW 110845Z AUTO 22005KT 10SM CLR 00/M03 A3014 RMK AO2 T00011029
KOCW 110825Z AUTO 22005KT 10SM CLR 00/M03 A3015 RMK AO2 T00021029
KOCW 110805Z AUTO 22005KT 10SM CLR 00/M03 A3016 RMK AO2 T00011030
KOCW 110745Z AUTO 21005KT 10SM CLR 00/M03 A3016 RMK AO2 T00031030
KOCW 110725Z AUTO 21004KT 10SM CLR 00/M03 A3016 RMK AO2 T00011030
KOCW 110705Z AUTO 21004KT 10SM CLR 00/M03 A3016 RMK AO2 T00041030
KOCW 110645Z AUTO 23004KT 10SM CLR 00/M03 A3017 RMK AO2 T00001032
KOCW 110625Z AUTO 23004KT 10SM CLR 00/M03 A3017 RMK AO2 T00001032
KOCW 110605Z AUTO 24005KT 10SM CLR 00/M03 A3017 RMK AO2 T00041030
KOCW 110545Z AUTO 21004KT 10SM CLR 01/M03 A3016 RMK AO2 T00071030
KOCW 110525Z AUTO 20004KT 10SM CLR 01/M03 A3016 RMK AO2 T00091029
KOCW 110505Z AUTO 19004KT 10SM CLR 01/M03 A3017 RMK AO2 T00071030
KOCW 110445Z AUTO 20003KT 10SM CLR 01/M03 A3018 RMK AO2 T00051028
KOCW 110425Z AUTO 21003KT 10SM CLR 01/M03 A3018 RMK AO2 T00061030
KOCW 110405Z AUTO 21003KT 10SM CLR 01/M03 A3018 RMK AO2 T00061028
KOCW 110345Z AUTO 21003KT 10SM CLR 01/M03 A3019 RMK AO2 T00081027
KOCW 110325Z AUTO 00000KT 10SM CLR 01/M03 A3019 RMK AO2 T00081026
KOCW 110305Z AUTO 00000KT 10SM CLR 01/M03 A3019 RMK AO2 T00101026
KOCW 110245Z AUTO 21003KT 10SM CLR 01/M03 A3019 RMK AO2 T00101026
KOCW 110225Z AUTO 00000KT 10SM CLR 01/M02 A3019 RMK AO2 T00101023
KOCW 110205Z AUTO 23003KT 10SM CLR 01/M02 A3019 RMK AO2 T00111022
KOCW 110145Z AUTO 20003KT 10SM CLR 01/M03 A3019 RMK AO2 T00111026
KOCW 110125Z AUTO 00000KT 10SM CLR 00/M02 A3019 RMK AO2 T00041025
KOCW 110105Z AUTO 00000KT 10SM CLR 01/M02 A3019 RMK AO2 T00061022
KOCW 110045Z AUTO 00000KT 10SM CLR 01/M02 A3019 RMK AO2 T00101023
KOCW 110025Z AUTO 00000KT 10SM CLR 01/M02 A3019 RMK AO2 T00051019
KOCW 110005Z AUTO 00000KT 10SM CLR 01/M02 A3018 RMK AO2 T00091020
KOCW 102345Z AUTO 00000KT 10SM CLR 02/M02 A3018 RMK AO2 T00151020
KOCW 102325Z AUTO 00000KT 10SM CLR 02/M02 A3018 RMK AO2 T00191022
KOCW 102305Z AUTO 00000KT 10SM CLR 03/M02 A3017 RMK AO2 T00251022
KOCW 102245Z AUTO 00000KT 10SM CLR 03/M02 A3017 RMK AO2 T00271022
KOCW 102225Z AUTO 00000KT 10SM CLR 03/M03 A3016 RMK AO2 T00331027
KOCW 102205Z AUTO 25004KT 10SM CLR 04/M03 A3016 RMK AO2 T00401035
KOCW 102145Z AUTO 25006KT 10SM CLR 05/M03 A3016 RMK AO2 T00481035
KOCW 102125Z AUTO 27005KT 10SM CLR 06/M04 A3016 RMK AO2 T00571037
KOCW 102105Z AUTO 27006KT 10SM CLR 06/M04 A3015 RMK AO2 T00621037
KOCW 102045Z AUTO 31006KT 10SM CLR 07/M04 A3014 RMK AO2 T00651037
KOCW 102025Z AUTO 30006KT 10SM CLR 07/M04 A3014 RMK AO2 T00661038
KOCW 102005Z AUTO 27007KT 10SM CLR 07/M04 A3014 RMK AO2 T00661039
KOCW 101945Z AUTO 27007KT 10SM CLR 07/M04 A3014 RMK AO2 T00651041
KOCW 101925Z AUTO 28004KT 10SM CLR 07/M04 A3014 RMK AO2 T00651044
KOCW 101905Z AUTO 29006KT 10SM CLR 07/M04 A3014 RMK AO2 T00661043
KOCW 101845Z AUTO 25006KT 10SM CLR 07/M04 A3014 RMK AO2 T00661040
KOCW 101825Z AUTO 30009G14KT 10SM CLR 06/M04 A3014 RMK AO2 T00641045
KOCW 101805Z AUTO 29004KT 10SM CLR 06/M04 A3015 RMK AO2 T00641042
KOCW 101745Z AUTO 28005KT 10SM CLR 06/M05 A3016 RMK AO2 T00621047
KOCW 101725Z AUTO 29004KT 10SM CLR 06/M05 A3017 RMK AO2 T00611050
KOCW 101705Z AUTO 31006KT 10SM CLR 06/M05 A3018 RMK AO2 T00571049
KOCW 101645Z AUTO 30008G14KT 10SM CLR 06/M05 A3019 RMK AO2 T00571046
KOCW 101625Z AUTO 32010KT 10SM CLR 05/M05 A3019 RMK AO2 T00521049
KOCW 101605Z AUTO 29010G15KT 10SM CLR 05/M04 A3019 RMK AO2 T00521036
KOCW 101545Z AUTO 29008KT 10SM CLR 05/M03 A3019 RMK AO2 T00481034
KOCW 101525Z AUTO 29009G14KT 10SM CLR 04/M03 A3019 RMK AO2 T00441032
KOCW 101505Z AUTO 28009G14KT 10SM CLR 04/M03 A3019 RMK AO2 T00401030
KOCW 101445Z AUTO 29006KT 10SM CLR 03/M02 A3019 RMK AO2 T00341025
KOCW 101425Z AUTO 29007G15KT 10SM CLR 03/M03 A3017 RMK AO2 T00271028
KOCW 101405Z AUTO 29004KT 10SM CLR 02/M02 A3016 RMK AO2 T00221025
KOCW 101345Z AUTO 29005KT 10SM CLR 02/M03 A3015 RMK AO2 T00161028
KOCW 101325Z AUTO 30003KT 10SM CLR 01/M02 A3014 RMK AO2 T00101025
KOCW 101305Z AUTO 29004KT 10SM CLR 01/M03 A3014 RMK AO2 T00061026
KOCW 101245Z AUTO 28003KT 10SM CLR 00/M02 A3014 RMK AO2 T00031025
KOCW 101225Z AUTO 29004KT 10SM CLR 00/M02 A3013 RMK AO2 T00001025
KOCW 101205Z AUTO 29003KT 10SM CLR 00/M02 A3012 RMK AO2 T00001025
KOCW 101145Z AUTO 29005KT 10SM CLR 00/M02 A3010 RMK AO2 T00021021
KOCW 101125Z AUTO 30005KT 10SM CLR 00/M02 A3009 RMK AO2 T00041020
KOCW 101105Z AUTO 27004KT 10SM CLR 01/M02 A3008 RMK AO2 T00051016
KOCW 101045Z AUTO 28005KT 10SM CLR 01/M01 A3007 RMK AO2 T00061015
KOCW 101025Z AUTO 29004KT 10SM CLR 01/M01 A3006 RMK AO2 T00091012
KOCW 101005Z AUTO 28005KT 10SM SCT065 01/M01 A3004 RMK AO2 T00111010
KOCW 100945Z AUTO 29005KT 10SM SCT065 02/M01 A3003 RMK AO2 T00151006
KOCW 100925Z AUTO 29005KT 10SM OVC065 01/00 A3003 RMK AO2 T00140000
KOCW 100905Z AUTO 25006KT 10SM OVC055 01/00 A3002 RMK AO2 T00110000
KOCW 100845Z AUTO 26005KT 10SM BKN055 01/00 A3001 RMK AO2 T00100000
KOCW 100825Z AUTO 24005KT 7SM CLR 01/00 A3000 RMK AO2 T00090000
KOCW 100805Z AUTO 26005KT 7SM SCT013 SCT020 01/00 A2999 RMK AO2 T00110001
KOCW 100745Z AUTO 25006KT 7SM SCT009 SCT018 01/00 A2998 RMK AO2 T00120002
KOCW 100725Z AUTO 25006KT 10SM SCT009 01/00 A2998 RMK AO2 T00120002
KOCW 100705Z AUTO 24007KT 10SM SCT011 BKN017 01/00 A2997 RMK AO2 T00120002
KOCW 100645Z AUTO 25005KT 10SM BKN012 BKN019 02/01 A2997 RMK AO2 P0001 T00150006
KOCW 100625Z AUTO 25004KT 10SM BKN010 01/00 A2997 RMK AO2 P0001 T00110001
KOCW 100605Z AUTO 27003KT 10SM BKN010 BKN021 02/00 A2996 RMK AO2 T00180004
KOCW 100545Z AUTO 28005KT 10SM OVC010 02/01 A2996 RMK AO2 T00240009
KOCW 100525Z AUTO 27005KT 10SM OVC010 02/01 A2996 RMK AO2 T00230010
KOCW 100505Z AUTO 26005KT 10SM OVC010 02/01 A2995 RMK AO2 T00230008
KOCW 100445Z AUTO 26005KT 10SM BKN009 OVC015 02/01 A2995 RMK AO2 T00220010
KOCW 100425Z AUTO 26006KT 10SM OVC009 02/01 A2995 RMK AO2 T00220011
KOCW 100405Z AUTO 27005KT 10SM OVC009 02/01 A2995 RMK AO2 T00210010
KOCW 100345Z AUTO 29005KT 10SM OVC009 02/01 A2995 RMK AO2 T00200010
KOCW 100325Z AUTO 29004KT 10SM OVC009 02/01 A2995 RMK AO2 T00200009